Time;durP1;ratioP1;P1;durP2;ratioP2;P2;SDS_P1;SDS_P2;PMS_P1;PMS_P2;Temp;Humidity;BMP_temperature;BMP_pressure;BME280_temperature;BME280_humidity;BME280_pressure;Samples;Min_cycle;Max_cycle;Signal;HPM_P1;HPM_P2
2023/12/25 00:01:10;;;;;;;;;;;;;;;;;;2191671;59;1927;-19
2023/12/25 00:03:41;;;;;;;;;;;;;;;;;;2192932;59;1747;-20
2023/12/25 00:06:13;;;;;;;;;;;;;;;;;;2188648;66;2020;-19
2023/12/25 00:08:44;;;;;;;;;;;;;;;;;;2192460;59;2510;-21
2023/12/25 00:11:15;;;;;;;;;;;;;;;;;;2190026;66;1933;-21
2023/12/25 00:13:47;;;;;;;;;;;;;;;;;;2191044;59;1806;-21
2023/12/25 00:16:17;;;;;;;;;;;;;;;;;;2192581;66;2024;-21
2023/12/25 00:18:50;;;;;;;;;;;;;;;;;;2190625;66;2762;-20
2023/12/25 00:21:21;;;;;;;;;;;;;;;;;;2192285;59;2812;-20
2023/12/25 00:23:51;;;;;;;;;;;;;;;;;;2194377;66;1995;-20
2023/12/25 00:26:22;;;;;;;;;;;;;;;;;;2192726;59;2282;-19
2023/12/25 00:28:52;;;;;;;;;;;;;;;;;;2193956;59;1885;-21
2023/12/25 00:31:22;;;;;;;;;;;;;;;;;;2187422;59;2210;-21
2023/12/25 00:33:53;;;;;;;;;;;;;;;;;;2194151;66;2347;-21
2023/12/25 00:36:23;;;;;;;;;;;;;;;;;;2192912;66;1881;-21
2023/12/25 00:38:53;;;;;;;;;;;;;;;;;;2195648;59;1981;-21
2023/12/25 00:41:30;;;;;;;;;;;;;;;;;;2192373;66;1848;-21
2023/12/25 00:44:01;;;;;;;;;;;;;;;;;;2190936;59;2052;-20
2023/12/25 00:46:32;;;;;;;;;;;;;;;;;;2192626;59;1918;-20
2023/12/25 00:49:03;;;;;;;;;;;;;;;;;;2187895;66;1862;-20
2023/12/25 00:51:34;;;;;;;;;;;;;;;;;;2193369;60;1865;-19
2023/12/25 00:54:05;;;;;;;;;;;;;;;;;;2186825;59;1793;-21
2023/12/25 00:56:36;;;;;;;;;;;;;;;;;;2192781;59;1902;-21
2023/12/25 00:59:06;;;;;;;;;;;;;;;;;;2193317;59;1995;-19
2023/12/25 01:01:37;;;;;;;;;;;;;;;;;;2193607;59;2237;-20
2023/12/25 01:04:08;;;;;;;;;;;;;;;;;;2190136;59;2037;-19
2023/12/25 01:06:41;;;;;;;;;;;;;;;;;;2187490;66;2124;-21
2023/12/25 01:09:13;;;;;;;;;;;;;;;;;;2189264;59;2106;-21
2023/12/25 01:11:45;;;;;;;;;;;;;;;;;;2190883;54;3238;-21
2023/12/25 01:14:18;;;;;;;;;;;;;;;;;;2187891;59;2075;-21
2023/12/25 01:16:48;;;;;;;;;;;;;;;;;;2187545;60;2324;-21
2023/12/25 01:19:21;;;;;;;;;;;;;;;;;;2185777;59;3487;-21
2023/12/25 01:21:59;;;;;;;;;;;;;;;;;;2189051;59;3526;-20
2023/12/25 01:24:29;;;;;;;;;;;;;;;;;;2188082;59;3607;-21
2023/12/25 01:27:00;;;;;;;;;;;;;;;;;;2191247;59;2277;-21
2023/12/25 01:29:30;;;;;;;;;;;;;;;;;;2186564;59;2302;-19
2023/12/25 01:32:01;;;;;;;;;;;;;;;;;;2190368;59;2448;-21
2023/12/25 01:34:31;;;;;;;;;;;;;;;;;;2185992;59;3398;-19
2023/12/25 01:37:04;;;;;;;;;;;;;;;;;;2187578;59;1849;-19
2023/12/25 01:39:35;;;;;;;;;;;;;;;;;;2187944;59;2131;-19
2023/12/25 01:42:07;;;;;;;;;;;;;;;;;;2187083;59;1715;-19
2023/12/25 01:44:38;;;;;;;;;;;;;;;;;;2189417;59;1810;-19
2023/12/25 01:47:08;;;;;;;;;;;;;;;;;;2189729;59;1892;-20
2023/12/25 01:49:39;;;;;;;;;;;;;;;;;;2189386;59;1802;-19
2023/12/25 01:52:10;;;;;;;;;;;;;;;;;;2186324;59;2012;-21
2023/12/25 01:54:40;;;;;;;;;;;;;;;;;;2188832;59;1880;-20
2023/12/25 01:57:11;;;;;;;;;;;;;;;;;;2189576;59;2351;-19
2023/12/25 01:59:41;;;;;;;;;;;;;;;;;;2189859;62;1858;-20
2023/12/25 02:02:12;;;;;;;;;;;;;;;;;;2189093;67;2038;-21
2023/12/25 02:04:43;;;;;;;;;;;;;;;;;;2189197;59;2486;-21
2023/12/25 02:07:14;;;;;;;;;;;;;;;;;;2188684;59;1937;-19
2023/12/25 02:09:49;;;;;;;;;;;;;;;;;;2190931;59;2405;-20
2023/12/25 02:12:19;;;;;;;;;;;;;;;;;;2190629;59;2038;-20
2023/12/25 02:14:49;;;;;;;;;;;;;;;;;;2190226;59;2093;-19
2023/12/25 02:17:20;;;;;;;;;;;;;;;;;;2189987;67;1828;-21
2023/12/25 02:19:51;;;;;;;;;;;;;;;;;;2189481;67;3307;-23
2023/12/25 02:22:21;;;;;;;;;;;;;;;;;;2188889;59;2899;-21
2023/12/25 02:24:56;;;;;;;;;;;;;;;;;;2188223;67;1962;-21
2023/12/25 02:27:27;;;;;;;;;;;;;;;;;;2186635;59;2225;-21
2023/12/25 02:29:59;;;;;;;;;;;;;;;;;;2188257;59;1764;-20
2023/12/25 02:32:30;;;;;;;;;;;;;;;;;;2188845;59;2129;-21
2023/12/25 02:35:01;;;;;;;;;;;;;;;;;;2189144;67;2011;-21
2023/12/25 02:37:33;;;;;;;;;;;;;;;;;;2185871;59;1868;-19
2023/12/25 02:40:05;;;;;;;;;;;;;;;;;;2189279;59;1737;-21
2023/12/25 02:42:36;;;;;;;;;;;;;;;;;;2188283;60;1865;-20
2023/12/25 02:45:06;;;;;;;;;;;;;;;;;;2202030;53;3354;-21
2023/12/25 02:47:37;;;;;;;;;;;;;;;;;;2208266;59;1978;-19
2023/12/25 02:50:09;;;;;;;;;;;;;;;;;;2209069;59;1855;-22
2023/12/25 02:52:40;;;;;;;;;;;;;;;;;;2202903;59;1862;-21
2023/12/25 02:55:12;;;;;;;;;;;;;;;;;;2204577;67;2320;-20
2023/12/25 02:57:48;;;;;;;;;;;;;;;;;;2207683;59;1883;-21
2023/12/25 03:00:19;;;;;;;;;;;;;;;;;;2205300;66;1940;-21
2023/12/25 03:02:51;;;;;;;;;;;;;;;;;;2202644;66;1798;-21
2023/12/25 03:05:21;;;;;;;;;;;;;;;;;;2208345;58;1751;-21
2023/12/25 03:07:53;;;;;;;;;;;;;;;;;;2202108;58;2031;-19
2023/12/25 03:10:24;;;;;;;;;;;;;;;;;;2204057;59;2091;-19
2023/12/25 03:12:59;;;;;;;;;;;;;;;;;;2206135;59;1767;-19
2023/12/25 03:15:32;;;;;;;;;;;;;;;;;;2204761;59;2783;-19
2023/12/25 03:18:05;;;;;;;;;;;;;;;;;;2203468;59;1980;-21
2023/12/25 03:20:37;;;;;;;;;;;;;;;;;;2201642;59;2057;-21
2023/12/25 03:23:07;;;;;;;;;;;;;;;;;;2207603;59;3483;-19
2023/12/25 03:25:38;;;;;;;;;;;;;;;;;;2206865;66;2121;-21
2023/12/25 03:28:10;;;;;;;;;;;;;;;;;;2202396;59;1912;-21
2023/12/25 03:30:42;;;;;;;;;;;;;;;;;;2201624;66;1835;-21
2023/12/25 03:33:13;;;;;;;;;;;;;;;;;;2204620;59;2316;-21
2023/12/25 03:35:43;;;;;;;;;;;;;;;;;;2207481;66;1882;-21
2023/12/25 03:38:14;;;;;;;;;;;;;;;;;;2204391;67;2058;-27
2023/12/25 03:40:45;;;;;;;;;;;;;;;;;;2204030;59;1811;-19
2023/12/25 03:43:16;;;;;;;;;;;;;;;;;;2205052;66;2040;-19
2023/12/25 03:45:46;;;;;;;;;;;;;;;;;;2202288;59;1782;-20
2023/12/25 03:48:17;;;;;;;;;;;;;;;;;;2208728;59;2373;-18
2023/12/25 03:50:48;;;;;;;;;;;;;;;;;;2206726;66;2592;-19
2023/12/25 03:53:19;;;;;;;;;;;;;;;;;;2207952;59;1762;-18
2023/12/25 03:55:50;;;;;;;;;;;;;;;;;;2201499;59;1956;-18
2023/12/25 03:58:21;;;;;;;;;;;;;;;;;;2207558;59;1846;-18
2023/12/25 04:00:52;;;;;;;;;;;;;;;;;;2202579;59;2092;-18
2023/12/25 04:03:24;;;;;;;;;;;;;;;;;;2202073;59;2101;-18
2023/12/25 04:05:55;;;;;;;;;;;;;;;;;;2202323;66;2015;-18
2023/12/25 04:08:25;;;;;;;;;;;;;;;;;;2208018;58;1799;-18
2023/12/25 04:10:55;;;;;;;;;;;;;;;;;;2203771;59;2219;-18
2023/12/25 04:13:26;;;;;;;;;;;;;;;;;;2204569;58;1937;-18
2023/12/25 04:15:57;;;;;;;;;;;;;;;;;;2204735;59;1855;-18
2023/12/25 04:18:29;;;;;;;;;;;;;;;;;;2204587;59;1990;-18
2023/12/25 04:21:00;;;;;;;;;;;;;;;;;;2203097;59;2557;-18
2023/12/25 04:23:35;;;;;;;;;;;;;;;;;;2202828;59;3421;-21
2023/12/25 04:26:06;;;;;;;;;;;;;;;;;;2208491;59;1984;-18
2023/12/25 04:28:38;;;;;;;;;;;;;;;;;;2202293;59;1949;-19
2023/12/25 04:31:11;;;;;;;;;;;;;;;;;;2204159;59;2387;-18
2023/12/25 04:33:42;;;;;;;;;;;;;;;;;;2208419;58;2210;-20
2023/12/25 04:36:13;;;;;;;;;;;;;;;;;;2208457;58;2630;-20
2023/12/25 04:38:43;;;;;;;;;;;;;;;;;;2205065;59;1954;-20
2023/12/25 04:41:20;;;;;;;;;;;;;;;;;;2205739;67;1827;-20
2023/12/25 04:43:51;;;;;;;;;;;;;;;;;;2202103;59;1855;-20
2023/12/25 04:46:21;;;;;;;;;;;;;;;;;;2205448;59;1939;-20
2023/12/25 04:48:56;;;;;;;;;;;;;;;;;;2205380;66;1966;-20
2023/12/25 04:51:28;;;;;;;;;;;;;;;;;;2203805;67;1897;-20
2023/12/25 04:53:59;;;;;;;;;;;;;;;;;;2201656;62;1832;-18
2023/12/25 04:56:34;;;;;;;;;;;;;;;;;;2204940;59;2069;-18
2023/12/25 04:59:05;;;;;;;;;;;;;;;;;;2201683;59;1893;-20
2023/12/25 05:01:37;;;;;;;;;;;;;;;;;;2209121;58;2007;-18
2023/12/25 05:04:08;;;;;;;;;;;;;;;;;;2204950;66;2589;-18
2023/12/25 05:06:39;;;;;;;;;;;;;;;;;;2207096;59;2031;-19
2023/12/25 05:09:11;;;;;;;;;;;;;;;;;;2204340;59;2196;-18
2023/12/25 05:11:42;;;;;;;;;;;;;;;;;;2203924;59;2111;-18
2023/12/25 05:14:14;;;;;;;;;;;;;;;;;;2205153;59;2020;-18
2023/12/25 05:16:46;;;;;;;;;;;;;;;;;;2203477;59;2090;-19
2023/12/25 05:19:17;;;;;;;;;;;;;;;;;;2203591;67;2012;-19
2023/12/25 05:21:48;;;;;;;;;;;;;;;;;;2209073;58;1778;-18
2023/12/25 05:24:20;;;;;;;;;;;;;;;;;;2203337;59;2717;-19
2023/12/25 05:26:52;;;;;;;;;;;;;;;;;;2203470;59;2348;-20
2023/12/25 05:29:23;;;;;;;;;;;;;;;;;;2206676;66;2046;-20
2023/12/25 05:31:54;;;;;;;;;;;;;;;;;;2209196;58;2067;-20
2023/12/25 05:34:27;;;;;;;;;;;;;;;;;;2205630;59;2183;-21
2023/12/25 05:36:57;;;;;;;;;;;;;;;;;;2206216;59;1617;-18
2023/12/25 05:39:28;;;;;;;;;;;;;;;;;;2205402;59;2431;-19
2023/12/25 05:41:59;;;;;;;;;;;;;;;;;;2204975;58;2067;-18
2023/12/25 05:44:31;;;;;;;;;;;;;;;;;;2202830;59;1923;-18
2023/12/25 05:47:02;;;;;;;;;;;;;;;;;;2202995;58;2210;-18
2023/12/25 05:49:38;;;;;;;;;;;;;;;;;;2203062;59;1936;-18
2023/12/25 05:52:10;;;;;;;;;;;;;;;;;;2204558;59;2279;-18
2023/12/25 05:54:43;;;;;;;;;;;;;;;;;;2204786;58;2155;-19
2023/12/25 05:57:16;;;;;;;;;;;;;;;;;;2204614;59;1639;-19
2023/12/25 05:59:47;;;;;;;;;;;;;;;;;;2208835;59;1995;-18
2023/12/25 06:02:19;;;;;;;;;;;;;;;;;;2207221;59;1772;-18
2023/12/25 06:04:49;;;;;;;;;;;;;;;;;;2202834;59;1865;-18
2023/12/25 06:07:20;;;;;;;;;;;;;;;;;;2208865;58;1933;-20
2023/12/25 06:09:52;;;;;;;;;;;;;;;;;;2202335;59;1917;-20
2023/12/25 06:12:23;;;;;;;;;;;;;;;;;;2209014;58;3055;-20
2023/12/25 06:14:55;;;;;;;;;;;;;;;;;;2201699;59;2221;-20
2023/12/25 06:17:26;;;;;;;;;;;;;;;;;;2203904;59;2103;-18
2023/12/25 06:19:58;;;;;;;;;;;;;;;;;;2200909;59;2285;-18
2023/12/25 06:22:29;;;;;;;;;;;;;;;;;;2201916;59;4573;-18
2023/12/25 06:25:01;;;;;;;;;;;;;;;;;;2201647;59;3163;-18
2023/12/25 06:27:32;;;;;;;;;;;;;;;;;;2208740;58;2466;-20
2023/12/25 06:30:04;;;;;;;;;;;;;;;;;;2204072;59;2127;-20
2023/12/25 06:32:35;;;;;;;;;;;;;;;;;;2208608;58;2241;-20
2023/12/25 06:35:06;;;;;;;;;;;;;;;;;;2202900;59;2240;-20
2023/12/25 06:37:38;;;;;;;;;;;;;;;;;;2203019;59;2092;-20
2023/12/25 06:40:10;;;;;;;;;;;;;;;;;;2203597;59;1731;-20
2023/12/25 06:42:44;;;;;;;;;;;;;;;;;;2204997;59;1805;-20
2023/12/25 06:45:16;;;;;;;;;;;;;;;;;;2202627;59;2123;-20
2023/12/25 06:47:48;;;;;;;;;;;;;;;;;;2200771;59;1934;-18
2023/12/25 06:50:18;;;;;;;;;;;;;;;;;;2203036;67;2130;-20
2023/12/25 06:52:50;;;;;;;;;;;;;;;;;;2202209;59;2040;-20
2023/12/25 06:55:22;;;;;;;;;;;;;;;;;;2205364;59;2036;-20
2023/12/25 06:57:53;;;;;;;;;;;;;;;;;;2201933;59;2026;-19
2023/12/25 07:00:24;;;;;;;;;;;;;;;;;;2204953;59;1939;-18
2023/12/25 07:02:55;;;;;;;;;;;;;;;;;;2203586;59;2280;-18
2023/12/25 07:05:29;;;;;;;;;;;;;;;;;;2205362;59;1800;-20
2023/12/25 07:08:00;;;;;;;;;;;;;;;;;;2203236;59;1937;-20
2023/12/25 07:10:32;;;;;;;;;;;;;;;;;;2203717;59;1912;-19
2023/12/25 07:13:03;;;;;;;;;;;;;;;;;;2204572;58;1802;-18
2023/12/25 07:15:34;;;;;;;;;;;;;;;;;;2204764;59;1863;-20
2023/12/25 07:18:08;;;;;;;;;;;;;;;;;;2203006;59;2460;-20
2023/12/25 07:20:40;;;;;;;;;;;;;;;;;;2205349;59;2437;-20
2023/12/25 07:23:13;;;;;;;;;;;;;;;;;;2202043;59;1765;-20
2023/12/25 07:25:45;;;;;;;;;;;;;;;;;;2201755;59;3255;-20
2023/12/25 07:28:17;;;;;;;;;;;;;;;;;;2203032;59;2991;-20
2023/12/25 07:30:48;;;;;;;;;;;;;;;;;;2201365;59;1874;-18
2023/12/25 07:33:19;;;;;;;;;;;;;;;;;;2204560;59;2406;-18
2023/12/25 07:35:50;;;;;;;;;;;;;;;;;;2202274;59;1843;-18
2023/12/25 07:38:21;;;;;;;;;;;;;;;;;;2208686;58;1593;-19
2023/12/25 07:40:52;;;;;;;;;;;;;;;;;;2207105;58;2016;-18
2023/12/25 07:43:24;;;;;;;;;;;;;;;;;;2204591;59;1707;-18
2023/12/25 07:45:55;;;;;;;;;;;;;;;;;;2205233;59;2017;-18
2023/12/25 07:48:28;;;;;;;;;;;;;;;;;;2205219;59;2210;-18
2023/12/25 07:50:59;;;;;;;;;;;;;;;;;;2203184;59;2400;-18
2023/12/25 07:53:31;;;;;;;;;;;;;;;;;;2202953;59;1794;-18
2023/12/25 07:56:02;;;;;;;;;;;;;;;;;;2202647;59;1871;-18
2023/12/25 07:58:35;;;;;;;;;;;;;;;;;;2209180;59;1732;-20
2023/12/25 08:01:08;;;;;;;;;;;;;;;;;;2206330;59;1821;-20
2023/12/25 08:03:42;;;;;;;;;;;;;;;;;;2205370;59;1796;-20
2023/12/25 08:06:23;;;;;;;;;;;;;;;;;;2204544;58;2408;-20
2023/12/25 08:08:57;;;;;;;;;;;;;;;;;;2204948;59;2349;-20
2023/12/25 08:11:32;;;;;;;;;;;;;;;;;;2204537;59;1837;-20
2023/12/25 08:14:04;;;;;;;;;;;;;;;;;;2206433;59;1779;-20
2023/12/25 08:16:35;;;;;;;;;;;;;;;;;;2203975;66;3770;-18
2023/12/25 08:19:06;;;;;;;;;;;;;;;;;;2202485;59;2130;-18
2023/12/25 08:21:38;;;;;;;;;;;;;;;;;;2204115;59;2208;-18
2023/12/25 08:24:10;;;;;;;;;;;;;;;;;;2203387;58;1843;-18
2023/12/25 08:26:41;;;;;;;;;;;;;;;;;;2202903;59;3145;-18
2023/12/25 08:29:13;;;;;;;;;;;;;;;;;;2204799;59;3449;-18
2023/12/25 08:31:44;;;;;;;;;;;;;;;;;;2203884;59;2255;-18
2023/12/25 08:34:14;;;;;;;;;;;;;;;;;;2206823;59;2168;-20
2023/12/25 08:36:46;;;;;;;;;;;;;;;;;;2205067;59;1842;-20
2023/12/25 08:39:18;;;;;;;;;;;;;;;;;;2207436;59;1912;-20
2023/12/25 08:41:49;;;;;;;;;;;;;;;;;;2201365;59;2537;-20
2023/12/25 08:44:21;;;;;;;;;;;;;;;;;;2203064;59;1775;-20
2023/12/25 08:46:52;;;;;;;;;;;;;;;;;;2204781;58;2016;-18
2023/12/25 08:49:22;;;;;;;;;;;;;;;;;;2203740;59;1556;-18
2023/12/25 08:51:53;;;;;;;;;;;;;;;;;;2208682;58;2407;-20
2023/12/25 08:54:24;;;;;;;;;;;;;;;;;;2205632;59;2098;-23
2023/12/25 08:56:57;;;;;;;;;;;;;;;;;;2201566;59;2008;-20
2023/12/25 08:59:29;;;;;;;;;;;;;;;;;;2207760;58;2090;-20
2023/12/25 09:02:01;;;;;;;;;;;;;;;;;;2201744;58;2198;-18
2023/12/25 09:04:41;;;;;;;;;;;;;;;;;;2202001;59;1762;-18
2023/12/25 09:07:13;;;;;;;;;;;;;;;;;;2201670;59;1979;-20
2023/12/25 09:09:45;;;;;;;;;;;;;;;;;;2203329;59;2106;-20
2023/12/25 09:12:16;;;;;;;;;;;;;;;;;;2204385;59;2893;-20
2023/12/25 09:14:47;;;;;;;;;;;;;;;;;;2206101;59;1853;-20
2023/12/25 09:17:19;;;;;;;;;;;;;;;;;;2203853;59;1788;-20
2023/12/25 09:19:50;;;;;;;;;;;;;;;;;;2205050;58;1882;-20
2023/12/25 09:22:25;;;;;;;;;;;;;;;;;;2203170;59;2298;-20
2023/12/25 09:24:58;;;;;;;;;;;;;;;;;;2204819;58;1942;-18
2023/12/25 09:27:30;;;;;;;;;;;;;;;;;;2201505;59;3050;-20
2023/12/25 09:30:01;;;;;;;;;;;;;;;;;;2203476;59;3265;-20
2023/12/25 09:32:32;;;;;;;;;;;;;;;;;;2208259;59;2179;-20
2023/12/25 09:35:04;;;;;;;;;;;;;;;;;;2203712;58;2143;-20
2023/12/25 09:37:36;;;;;;;;;;;;;;;;;;2203337;59;1772;-20
2023/12/25 09:40:08;;;;;;;;;;;;;;;;;;2201871;59;2115;-18
2023/12/25 09:42:43;;;;;;;;;;;;;;;;;;2205534;59;2049;-18
2023/12/25 09:45:17;;;;;;;;;;;;;;;;;;2201413;59;1842;-18
2023/12/25 09:47:50;;;;;;;;;;;;;;;;;;2204759;59;2176;-18
2023/12/25 09:50:21;;;;;;;;;;;;;;;;;;2205549;59;1752;-20
2023/12/25 09:52:53;;;;;;;;;;;;;;;;;;2204418;59;2650;-20
2023/12/25 09:55:25;;;;;;;;;;;;;;;;;;2203058;59;2060;-20
2023/12/25 09:58:00;;;;;;;;;;;;;;;;;;2203778;58;1888;-20
2023/12/25 10:00:31;;;;;;;;;;;;;;;;;;2204886;59;1862;-21
2023/12/25 10:03:03;;;;;;;;;;;;;;;;;;2205169;59;2108;-18
2023/12/25 10:05:34;;;;;;;;;;;;;;;;;;2203910;59;2698;-18
2023/12/25 10:08:05;;;;;;;;;;;;;;;;;;2200923;59;2006;-18
2023/12/25 10:10:36;;;;;;;;;;;;;;;;;;2207971;59;1956;-20
2023/12/25 10:13:06;;;;;;;;;;;;;;;;;;2208586;58;2497;-20
2023/12/25 10:15:36;;;;;;;;;;;;;;;;;;2208513;59;1932;-18
2023/12/25 10:18:07;;;;;;;;;;;;;;;;;;2209953;59;2573;-19
2023/12/25 10:20:38;;;;;;;;;;;;;;;;;;2205480;59;2550;-18
2023/12/25 10:23:13;;;;;;;;;;;;;;;;;;2204413;66;2198;-18
2023/12/25 10:25:44;;;;;;;;;;;;;;;;;;2205080;66;1806;-18
2023/12/25 10:28:15;;;;;;;;;;;;;;;;;;2205939;59;3001;-31
2023/12/25 10:30:50;;;;;;;;;;;;;;;;;;2207775;59;2213;-19
2023/12/25 10:33:21;;;;;;;;;;;;;;;;;;2209381;59;2080;-20
2023/12/25 10:36:00;;;;;;;;;;;;;;;;;;2205736;67;2883;-20
2023/12/25 10:38:32;;;;;;;;;;;;;;;;;;2209006;66;1932;-19
2023/12/25 10:41:19;;;;;;;;;;;;;;;;;;2208551;66;1977;-18
2023/12/25 10:43:55;;;;;;;;;;;;;;;;;;2203091;59;1973;-19
2023/12/25 10:46:37;;;;;;;;;;;;;;;;;;2208754;66;2418;-18
2023/12/25 10:49:08;;;;;;;;;;;;;;;;;;2207910;59;2895;-18
2023/12/25 10:51:49;;;;;;;;;;;;;;;;;;2208995;66;2814;-19
2023/12/25 10:54:20;;;;;;;;;;;;;;;;;;2207547;66;2577;-18
2023/12/25 10:56:50;;;;;;;;;;;;;;;;;;2202970;59;1934;-20
2023/12/25 10:59:32;;;;;;;;;;;;;;;;;;2204194;59;2068;-18
2023/12/25 11:02:05;;;;;;;;;;;;;;;;;;2202343;66;3542;-18
2023/12/25 11:04:36;;;;;;;;;;;;;;;;;;2205262;59;1936;-18
2023/12/25 11:07:07;;;;;;;;;;;;;;;;;;2205443;59;1950;-18
2023/12/25 11:09:37;;;;;;;;;;;;;;;;;;2208217;59;2272;-18
2023/12/25 11:12:08;;;;;;;;;;;;;;;;;;2204660;59;2840;-18
2023/12/25 11:14:39;;;;;;;;;;;;;;;;;;2208102;59;2070;-18
2023/12/25 11:17:10;;;;;;;;;;;;;;;;;;2207708;58;2389;-18
2023/12/25 11:19:41;;;;;;;;;;;;;;;;;;2208050;66;1986;-19
2023/12/25 11:22:28;;;;;;;;;;;;;;;;;;2207714;66;2981;-19
2023/12/25 11:25:00;;;;;;;;;;;;;;;;;;2202872;66;2088;-18
2023/12/25 11:27:31;;;;;;;;;;;;;;;;;;2205570;59;2365;-19
2023/12/25 11:30:02;;;;;;;;;;;;;;;;;;2207916;59;2634;-18
2023/12/25 11:32:34;;;;;;;;;;;;;;;;;;2208157;59;2923;-19
2023/12/25 11:35:07;;;;;;;;;;;;;;;;;;2203370;66;1811;-18
2023/12/25 11:37:38;;;;;;;;;;;;;;;;;;2205741;59;2240;-19
2023/12/25 11:40:09;;;;;;;;;;;;;;;;;;2207878;66;2100;-21
2023/12/25 11:42:41;;;;;;;;;;;;;;;;;;2208700;66;2109;-19
2023/12/25 11:45:11;;;;;;;;;;;;;;;;;;2205655;59;2792;-19
2023/12/25 11:47:44;;;;;;;;;;;;;;;;;;2209550;59;1998;-20
2023/12/25 11:50:15;;;;;;;;;;;;;;;;;;2208164;60;2446;-18
2023/12/25 11:52:46;;;;;;;;;;;;;;;;;;2209064;66;2128;-18
2023/12/25 11:55:21;;;;;;;;;;;;;;;;;;2205844;59;2330;-19
2023/12/25 11:57:52;;;;;;;;;;;;;;;;;;2206772;59;2270;-19
2023/12/25 12:00:40;;;;;;;;;;;;;;;;;;2209774;66;3004;-19
2023/12/25 12:03:11;;;;;;;;;;;;;;;;;;2206754;59;1993;-18
2023/12/25 12:05:43;;;;;;;;;;;;;;;;;;2207367;66;2112;-19
2023/12/25 12:08:14;;;;;;;;;;;;;;;;;;2209592;59;2713;-19
2023/12/25 12:10:45;;;;;;;;;;;;;;;;;;2210055;59;2009;-18
2023/12/25 12:13:17;;;;;;;;;;;;;;;;;;2204992;58;1802;-19
2023/12/25 12:15:48;;;;;;;;;;;;;;;;;;2209027;59;1906;-21
2023/12/25 12:18:19;;;;;;;;;;;;;;;;;;2205372;59;2542;-19
2023/12/25 12:20:49;;;;;;;;;;;;;;;;;;2208260;66;1917;-19
2023/12/25 12:23:20;;;;;;;;;;;;;;;;;;2208951;59;2243;-20
2023/12/25 12:25:51;;;;;;;;;;;;;;;;;;2209397;66;2070;-18
2023/12/25 12:28:21;;;;;;;;;;;;;;;;;;2208998;59;2897;-19
2023/12/25 12:30:52;;;;;;;;;;;;;;;;;;2205416;59;2842;-18
2023/12/25 12:33:22;;;;;;;;;;;;;;;;;;2204727;59;3422;-19
2023/12/25 12:35:53;;;;;;;;;;;;;;;;;;2205608;66;1811;-18
2023/12/25 12:38:27;;;;;;;;;;;;;;;;;;2208801;66;1886;-18
2023/12/25 12:40:59;;;;;;;;;;;;;;;;;;2206706;66;1980;-18
2023/12/25 12:43:29;;;;;;;;;;;;;;;;;;2207141;59;2755;-19
2023/12/25 12:46:20;;;;;;;;;;;;;;;;;;2206019;59;1905;-18
2023/12/25 12:48:50;;;;;;;;;;;;;;;;;;2206964;66;2633;-18
2023/12/25 12:51:23;;;;;;;;;;;;;;;;;;2208312;58;1988;-19
2023/12/25 12:53:54;;;;;;;;;;;;;;;;;;2209607;59;2541;-18
2023/12/25 12:56:24;;;;;;;;;;;;;;;;;;2204003;59;2618;-18
2023/12/25 12:58:54;;;;;;;;;;;;;;;;;;2206449;59;1879;-19
2023/12/25 13:01:29;;;;;;;;;;;;;;;;;;2209479;59;1795;-20
2023/12/25 13:04:00;;;;;;;;;;;;;;;;;;2206253;66;2254;-18
2023/12/25 13:06:30;;;;;;;;;;;;;;;;;;2209144;66;1936;-18
2023/12/25 13:09:03;;;;;;;;;;;;;;;;;;2206108;58;1976;-21
2023/12/25 13:11:35;;;;;;;;;;;;;;;;;;2206180;59;2274;-19
2023/12/25 13:14:05;;;;;;;;;;;;;;;;;;2207180;59;1802;-19
2023/12/25 13:16:36;;;;;;;;;;;;;;;;;;2210235;59;2300;-18
2023/12/25 13:19:06;;;;;;;;;;;;;;;;;;2207903;59;2148;-19
2023/12/25 13:21:37;;;;;;;;;;;;;;;;;;2203050;59;2738;-20
2023/12/25 13:24:07;;;;;;;;;;;;;;;;;;2203920;59;1964;-18
2023/12/25 13:26:38;;;;;;;;;;;;;;;;;;2205767;59;2230;-19
2023/12/25 13:29:09;;;;;;;;;;;;;;;;;;2208367;66;2370;-19
2023/12/25 13:31:39;;;;;;;;;;;;;;;;;;2208786;59;3033;-29
2023/12/25 13:34:11;;;;;;;;;;;;;;;;;;2204680;59;2954;-19
2023/12/25 13:36:42;;;;;;;;;;;;;;;;;;2209528;58;2013;-19
2023/12/25 13:39:12;;;;;;;;;;;;;;;;;;2208614;66;1920;-19
2023/12/25 13:41:43;;;;;;;;;;;;;;;;;;2205396;59;3154;-19
2023/12/25 13:44:14;;;;;;;;;;;;;;;;;;2208889;59;1816;-21
2023/12/25 13:46:45;;;;;;;;;;;;;;;;;;2208786;59;1988;-19
2023/12/25 13:49:15;;;;;;;;;;;;;;;;;;2205699;66;2268;-20
2023/12/25 13:51:46;;;;;;;;;;;;;;;;;;2208578;66;3262;-19
2023/12/25 13:54:16;;;;;;;;;;;;;;;;;;2208596;66;1821;-19
2023/12/25 13:56:46;;;;;;;;;;;;;;;;;;2207673;66;1728;-18
2023/12/25 13:59:17;;;;;;;;;;;;;;;;;;2201536;59;1889;-19
2023/12/25 14:01:48;;;;;;;;;;;;;;;;;;2209294;59;1818;-19
2023/12/25 14:04:19;;;;;;;;;;;;;;;;;;2202351;59;2945;-20
2023/12/25 14:06:49;;;;;;;;;;;;;;;;;;2205925;59;2257;-21
2023/12/25 14:09:20;;;;;;;;;;;;;;;;;;2208769;58;2657;-20
2023/12/25 14:11:50;;;;;;;;;;;;;;;;;;2208983;59;1866;-19
2023/12/25 14:14:21;;;;;;;;;;;;;;;;;;2205374;59;1740;-19
2023/12/25 14:16:51;;;;;;;;;;;;;;;;;;2206045;67;2076;-19
2023/12/25 14:19:22;;;;;;;;;;;;;;;;;;2208096;59;2325;-18
2023/12/25 14:21:53;;;;;;;;;;;;;;;;;;2208293;66;2410;-18
2023/12/25 14:24:23;;;;;;;;;;;;;;;;;;2208304;59;3174;-18
2023/12/25 14:26:53;;;;;;;;;;;;;;;;;;2209692;66;2369;-19
2023/12/25 14:29:24;;;;;;;;;;;;;;;;;;2208824;66;3284;-18
2023/12/25 14:31:55;;;;;;;;;;;;;;;;;;2208751;59;3160;-19
2023/12/25 14:34:25;;;;;;;;;;;;;;;;;;2207672;59;3712;-18
2023/12/25 14:36:56;;;;;;;;;;;;;;;;;;2209408;59;3001;-18
2023/12/25 14:39:27;;;;;;;;;;;;;;;;;;2208354;59;1965;-19
2023/12/25 14:41:57;;;;;;;;;;;;;;;;;;2205374;59;1860;-19
2023/12/25 14:44:28;;;;;;;;;;;;;;;;;;2208689;59;2903;-20
2023/12/25 14:46:59;;;;;;;;;;;;;;;;;;2206472;66;1973;-20
2023/12/25 14:49:30;;;;;;;;;;;;;;;;;;2209508;59;2206;-20
2023/12/25 14:52:01;;;;;;;;;;;;;;;;;;2208729;59;2657;-18
2023/12/25 14:54:31;;;;;;;;;;;;;;;;;;2205673;59;1911;-18
2023/12/25 14:57:03;;;;;;;;;;;;;;;;;;2208144;59;2381;-18
2023/12/25 14:59:33;;;;;;;;;;;;;;;;;;2208363;59;1806;-18
2023/12/25 15:02:04;;;;;;;;;;;;;;;;;;2205933;67;1880;-18
2023/12/25 15:04:34;;;;;;;;;;;;;;;;;;2203338;66;2367;-18
2023/12/25 15:07:05;;;;;;;;;;;;;;;;;;2206217;59;2750;-19
2023/12/25 15:09:36;;;;;;;;;;;;;;;;;;2208472;58;2233;-19
2023/12/25 15:12:07;;;;;;;;;;;;;;;;;;2204062;59;2508;-18
2023/12/25 15:14:38;;;;;;;;;;;;;;;;;;2206645;59;2414;-18
2023/12/25 15:17:08;;;;;;;;;;;;;;;;;;2208803;58;1860;-18
2023/12/25 15:19:39;;;;;;;;;;;;;;;;;;2209730;59;2314;-18
2023/12/25 15:22:10;;;;;;;;;;;;;;;;;;2209947;59;2162;-18
2023/12/25 15:24:40;;;;;;;;;;;;;;;;;;2206023;59;2531;-18
2023/12/25 15:27:11;;;;;;;;;;;;;;;;;;2207220;59;2847;-18
2023/12/25 15:29:43;;;;;;;;;;;;;;;;;;2204385;66;2537;-18
2023/12/25 15:32:13;;;;;;;;;;;;;;;;;;2208448;59;2546;-19
2023/12/25 15:34:43;;;;;;;;;;;;;;;;;;2206100;59;2835;-19
2023/12/25 15:37:15;;;;;;;;;;;;;;;;;;2204786;66;2246;-18
2023/12/25 15:39:46;;;;;;;;;;;;;;;;;;2209687;59;1877;-18
2023/12/25 15:42:17;;;;;;;;;;;;;;;;;;2207723;59;1803;-18
2023/12/25 15:44:48;;;;;;;;;;;;;;;;;;2208916;59;2361;-18
2023/12/25 15:47:18;;;;;;;;;;;;;;;;;;2204332;59;2498;-18
2023/12/25 15:49:49;;;;;;;;;;;;;;;;;;2209023;59;2727;-18
2023/12/25 15:52:19;;;;;;;;;;;;;;;;;;2207361;59;2909;-18
2023/12/25 15:54:50;;;;;;;;;;;;;;;;;;2208197;59;2855;-18
2023/12/25 15:57:20;;;;;;;;;;;;;;;;;;2202179;59;2360;-18
2023/12/25 15:59:51;;;;;;;;;;;;;;;;;;2206339;67;2101;-19
2023/12/25 16:02:22;;;;;;;;;;;;;;;;;;2202773;59;2068;-19
2023/12/25 16:04:52;;;;;;;;;;;;;;;;;;2208725;58;2326;-19
2023/12/25 16:07:23;;;;;;;;;;;;;;;;;;2205042;59;2503;-19
2023/12/25 16:09:53;;;;;;;;;;;;;;;;;;2205144;59;2856;-19
2023/12/25 16:12:24;;;;;;;;;;;;;;;;;;2208768;66;1881;-18
2023/12/25 16:14:56;;;;;;;;;;;;;;;;;;2206646;59;2073;-19
2023/12/25 16:17:26;;;;;;;;;;;;;;;;;;2204720;59;2802;-18
2023/12/25 16:19:56;;;;;;;;;;;;;;;;;;2205489;67;2979;-18
2023/12/25 16:22:30;;;;;;;;;;;;;;;;;;2204539;66;2070;-18
2023/12/25 16:25:00;;;;;;;;;;;;;;;;;;2202236;59;2132;-18
2023/12/25 16:27:31;;;;;;;;;;;;;;;;;;2207587;59;2596;-18
2023/12/25 16:30:03;;;;;;;;;;;;;;;;;;2209125;59;2014;-18
2023/12/25 16:32:33;;;;;;;;;;;;;;;;;;2208434;59;2487;-18
2023/12/25 16:35:04;;;;;;;;;;;;;;;;;;2209046;58;2583;-18
2023/12/25 16:37:34;;;;;;;;;;;;;;;;;;2205110;59;2261;-18
2023/12/25 16:40:05;;;;;;;;;;;;;;;;;;2206960;66;2406;-20
2023/12/25 16:42:36;;;;;;;;;;;;;;;;;;2209320;66;2753;-18
2023/12/25 16:45:06;;;;;;;;;;;;;;;;;;2205577;59;2370;-18
2023/12/25 16:47:38;;;;;;;;;;;;;;;;;;2206514;59;2851;-19
2023/12/25 16:50:09;;;;;;;;;;;;;;;;;;2209647;66;2458;-18
2023/12/25 16:52:40;;;;;;;;;;;;;;;;;;2210095;66;2655;-19
2023/12/25 16:55:10;;;;;;;;;;;;;;;;;;2210699;59;2337;-18
2023/12/25 16:57:40;;;;;;;;;;;;;;;;;;2209405;59;2408;-18
2023/12/25 17:00:11;;;;;;;;;;;;;;;;;;2210199;66;2668;-19
2023/12/25 17:02:41;;;;;;;;;;;;;;;;;;2208955;59;2278;-18
2023/12/25 17:05:12;;;;;;;;;;;;;;;;;;2209559;66;2699;-18
2023/12/25 17:07:42;;;;;;;;;;;;;;;;;;2206162;66;2328;-20
2023/12/25 17:10:13;;;;;;;;;;;;;;;;;;2209209;59;2080;-20
2023/12/25 17:12:43;;;;;;;;;;;;;;;;;;2205092;59;2514;-20
2023/12/25 17:15:14;;;;;;;;;;;;;;;;;;2206236;59;3379;-20
2023/12/25 17:17:45;;;;;;;;;;;;;;;;;;2206664;59;2436;-18
2023/12/25 17:20:16;;;;;;;;;;;;;;;;;;2207002;66;2605;-18
2023/12/25 17:22:48;;;;;;;;;;;;;;;;;;2206283;66;1928;-18
2023/12/25 17:25:19;;;;;;;;;;;;;;;;;;2207213;59;2495;-18
2023/12/25 17:27:49;;;;;;;;;;;;;;;;;;2206482;59;1975;-26
2023/12/25 17:30:20;;;;;;;;;;;;;;;;;;2210200;59;2438;-18
2023/12/25 17:32:51;;;;;;;;;;;;;;;;;;2209894;59;2547;-18